Time;durP1;ratioP1;P1;durP2;ratioP2;P2;SDS_P1;SDS_P2;PMS_P1;PMS_P2;Temp;Humidity;BMP_temperature;BMP_pressure;BME280_temperature;BME280_humidity;BME280_pressure;Samples;Min_cycle;Max_cycle;Signal;HPM_P1;HPM_P2
2021/12/08 00:02:00;;;;;;;8.43;5.75;;;4.00;99.90;;;;;;5006248;28;89162;-35
2021/12/08 00:04:26;;;;;;;6.47;4.88;;;4.00;99.90;;;;;;4991470;28;87789;-35
2021/12/08 00:06:51;;;;;;;6.35;5.55;;;4.00;99.90;;;;;;4989884;28;87021;-35
2021/12/08 00:09:46;;;;;;;9.95;5.63;;;3.90;99.90;;;;;;4972982;28;90807;-35
2021/12/08 00:14:59;;;;;;;9.82;5.03;;;3.80;99.90;;;;;;4990466;28;89459;-35
2021/12/08 00:17:25;;;;;;;8.32;5.68;;;3.90;99.90;;;;;;4990657;28;87599;-35
2021/12/08 00:19:51;;;;;;;7.93;5.72;;;3.90;99.90;;;;;;4989849;28;89230;-35
2021/12/08 00:22:17;;;;;;;7.70;4.93;;;3.80;99.90;;;;;;4988828;28;88598;-35
2021/12/08 00:24:43;;;;;;;11.75;5.90;;;3.80;99.90;;;;;;4990205;28;87859;-36
2021/12/08 00:27:09;;;;;;;11.20;6.25;;;3.80;99.90;;;;;;4991016;28;88806;-36
2021/12/08 00:29:35;;;;;;;8.20;5.75;;;3.80;99.90;;;;;;4989669;28;89486;-35
2021/12/08 00:32:00;;;;;;;14.60;7.03;;;3.80;99.90;;;;;;4990007;28;88866;-36
2021/12/08 00:34:26;;;;;;;8.10;6.20;;;3.70;99.90;;;;;;4989768;28;88537;-35
2021/12/08 00:36:56;;;;;;;9.55;5.40;;;3.80;99.90;;;;;;4988992;28;89172;-35
2021/12/08 00:39:22;;;;;;;15.80;6.28;;;3.80;99.90;;;;;;4989845;28;89249;-35
2021/12/08 00:41:48;;;;;;;9.68;5.43;;;3.70;99.90;;;;;;4990026;28;88682;-35
2021/12/08 00:44:14;;;;;;;12.00;6.07;;;3.70;99.90;;;;;;4988968;28;88060;-36
2021/12/08 00:46:40;;;;;;;9.30;6.28;;;3.90;99.90;;;;;;4990191;28;88874;-35
2021/12/08 00:49:09;;;;;;;6.65;4.97;;;3.80;99.90;;;;;;4989902;28;89099;-35
2021/12/08 00:51:35;;;;;;;8.05;4.97;;;3.90;99.90;;;;;;4972425;28;89149;-35
2021/12/08 00:54:01;;;;;;;10.18;5.28;;;3.90;99.90;;;;;;4990009;28;88017;-35
2021/12/08 00:56:26;;;;;;;9.77;4.60;;;3.90;99.90;;;;;;4989484;28;89155;-34
2021/12/08 00:58:52;;;;;;;11.95;5.13;;;4.00;99.90;;;;;;4988800;28;89550;-35
2021/12/08 01:01:18;;;;;;;5.47;4.47;;;4.10;99.90;;;;;;4989477;28;89457;-35
2021/12/08 01:03:46;;;;;;;7.68;4.22;;;4.10;99.90;;;;;;4988885;28;89162;-35
2021/12/08 01:06:13;;;;;;;;;;;4.20;99.90;;;;;;4990119;28;87741;-34
2021/12/08 01:08:39;;;;;;;9.88;4.85;;;4.10;99.90;;;;;;4990545;28;89922;-36
2021/12/08 01:11:09;;;;;;;7.57;4.75;;;4.10;99.90;;;;;;4988827;28;92121;-36
2021/12/08 01:13:35;;;;;;;6.30;5.05;;;4.00;99.90;;;;;;4989757;28;87723;-35
2021/12/08 01:16:02;;;;;;;7.22;5.60;;;4.10;99.90;;;;;;4988776;28;88535;-34
2021/12/08 01:21:00;;;;;;;7.80;5.35;;;4.10;99.90;;;;;;4987844;28;88900;-35
2021/12/08 01:23:27;;;;;;;6.70;3.55;;;4.10;99.90;;;;;;4989607;28;88446;-36
2021/12/08 01:25:54;;;;;;;3.85;3.40;;;4.10;99.90;;;;;;4988836;28;88031;-35
2021/12/08 01:28:20;;;;;;;4.15;3.78;;;4.20;99.90;;;;;;4989022;28;89218;-35
2021/12/08 01:30:46;;;;;;;10.90;5.25;;;4.30;99.90;;;;;;4988506;28;90981;-35
2021/12/08 01:33:12;;;;;;;19.45;5.18;;;4.20;99.90;;;;;;4989044;28;88866;-35
2021/12/08 01:35:38;;;;;;;7.55;5.30;;;4.20;99.90;;;;;;4988787;28;87672;-35
2021/12/08 01:38:04;;;;;;;10.50;5.18;;;4.20;99.90;;;;;;4988448;28;91002;-36
2021/12/08 01:40:30;;;;;;;7.60;5.57;;;4.10;99.90;;;;;;4988361;28;89536;-34
2021/12/08 01:42:58;;;;;;;5.82;4.78;;;4.10;99.90;;;;;;4990135;28;89134;-35
2021/12/08 01:48:18;;;;;;;4.43;3.80;;;4.10;99.90;;;;;;4988578;28;89999;-35
2021/12/08 01:50:47;;;;;;;6.72;4.72;;;4.20;99.90;;;;;;4988684;28;89575;-35
2021/12/08 01:53:12;;;;;;;7.82;4.97;;;4.20;99.90;;;;;;4988595;28;89400;-35
2021/12/08 01:55:40;;;;;;;6.88;4.88;;;4.20;99.90;;;;;;4989254;28;87443;-35
2021/12/08 01:58:07;;;;;;;12.60;5.65;;;4.20;99.90;;;;;;4992024;28;87975;-35
2021/12/08 02:00:39;;;;;;;10.70;5.00;;;4.10;99.90;;;;;;4991877;28;88589;-35
2021/12/08 02:03:05;;;;;;;4.60;4.20;;;4.10;99.90;;;;;;4992307;28;88574;-35
2021/12/08 02:05:31;;;;;;;5.60;3.80;;;4.10;99.90;;;;;;4992483;28;87339;-37
2021/12/08 02:07:57;;;;;;;7.03;5.22;;;4.10;99.90;;;;;;4992310;28;89121;-35
2021/12/08 02:10:26;;;;;;;4.90;4.03;;;4.00;99.90;;;;;;4992274;28;88736;-35
2021/12/08 02:12:52;;;;;;;6.50;4.88;;;4.10;99.90;;;;;;4990874;28;90061;-35
2021/12/08 02:15:20;;;;;;;7.60;4.22;;;4.10;99.90;;;;;;4992029;28;89163;-35
2021/12/08 02:17:49;;;;;;;5.90;4.95;;;4.10;99.90;;;;;;4991737;28;90016;-35
2021/12/08 02:20:15;;;;;;;7.03;4.38;;;4.10;99.90;;;;;;4991932;28;89828;-35
2021/12/08 02:22:42;;;;;;;8.63;3.63;;;4.10;99.90;;;;;;4991781;28;87361;-36
2021/12/08 02:25:11;;;;;;;5.72;4.35;;;4.10;99.90;;;;;;4992523;28;87996;-33
2021/12/08 02:27:37;;;;;;;9.65;4.47;;;4.10;99.90;;;;;;4991231;28;90852;-34
2021/12/08 02:30:23;;;;;;;6.53;4.80;;;4.20;99.90;;;;;;4991215;28;88799;-35
2021/12/08 02:49:07;;;;;;;6.32;5.00;;;4.10;99.90;;;;;;4991445;28;89079;-35
2021/12/08 02:51:36;;;;;;;9.93;5.72;;;4.10;99.90;;;;;;4990847;28;88753;-35
2021/12/08 02:54:02;;;;;;;8.25;4.80;;;4.10;99.90;;;;;;4991161;28;88602;-34
2021/12/08 02:56:28;;;;;;;9.30;5.30;;;4.10;99.90;;;;;;4992163;28;87703;-36
2021/12/08 02:58:53;;;;;;;8.50;5.10;;;4.10;99.90;;;;;;4990688;28;89042;-35
2021/12/08 03:01:19;;;;;;;9.00;5.13;;;4.10;99.90;;;;;;4991582;28;88141;-36
2021/12/08 03:03:45;;;;;;;5.82;5.13;;;4.10;99.90;;;;;;4990647;28;88530;-34
2021/12/08 03:06:12;;;;;;;7.05;5.07;;;4.10;99.90;;;;;;4990702;28;88876;-35
2021/12/08 03:08:38;;;;;;;5.18;4.68;;;4.20;99.90;;;;;;4990533;28;88921;-33
2021/12/08 03:11:04;;;;;;;6.93;4.10;;;4.20;99.90;;;;;;4991254;28;88874;-35
2021/12/08 03:13:37;;;;;;;6.25;4.75;;;4.20;99.90;;;;;;4991677;28;87361;-35
2021/12/08 03:16:04;;;;;;;6.65;4.75;;;4.20;99.90;;;;;;4990222;28;87833;-35
2021/12/08 03:18:35;;;;;;;5.68;5.00;;;4.30;99.90;;;;;;4990624;28;89183;-35
2021/12/08 03:21:03;;;;;;;7.55;5.18;;;4.40;99.90;;;;;;4990208;28;88855;-34
2021/12/08 03:23:36;;;;;;;8.80;5.30;;;4.40;99.90;;;;;;4990164;28;88807;-36
2021/12/08 03:26:05;;;;;;;7.63;5.45;;;4.40;99.90;;;;;;4991129;28;88383;-35
2021/12/08 03:28:36;;;;;;;7.82;5.70;;;4.40;99.90;;;;;;4990756;28;88726;-37
2021/12/08 03:31:08;;;;;;;7.68;6.13;;;4.40;99.90;;;;;;4980760;28;89456;-34
2021/12/08 03:33:35;;;;;;;6.07;4.88;;;4.40;99.90;;;;;;4971511;28;89175;-36
2021/12/08 03:36:02;;;;;;;8.25;7.03;;;4.40;99.90;;;;;;4987536;28;88249;-35
2021/12/08 03:38:28;;;;;;;5.40;4.82;;;4.40;99.90;;;;;;4970713;28;89197;-35
2021/12/08 03:40:56;;;;;;;11.35;6.55;;;4.40;99.90;;;;;;4971176;28;88635;-35
2021/12/08 03:43:22;;;;;;;;;;;4.50;99.90;;;;;;4971307;28;88194;-35
2021/12/08 03:45:50;;;;;;;7.18;5.68;;;4.50;99.90;;;;;;4971506;28;87092;-35
2021/12/08 03:48:28;;;;;;;8.57;6.78;;;4.50;99.90;;;;;;4971271;28;87886;-36
2021/12/08 03:50:55;;;;;;;8.10;6.20;;;4.50;99.90;;;;;;4986112;28;90260;-35
2021/12/08 03:53:21;;;;;;;7.00;5.78;;;4.60;99.90;;;;;;4970894;28;88942;-35
2021/12/08 03:55:50;;;;;;;8.00;7.18;;;4.60;99.90;;;;;;4985802;28;89276;-35
2021/12/08 03:58:16;;;;;;;;;;;4.60;99.90;;;;;;4971115;28;88890;-35
2021/12/08 04:00:43;;;;;;;6.80;6.10;;;4.60;99.90;;;;;;4972384;28;87446;-35
2021/12/08 04:03:11;;;;;;;11.23;7.03;;;4.60;99.90;;;;;;4970809;28;88516;-35
2021/12/08 04:05:55;;;;;;;8.47;7.20;;;4.70;99.90;;;;;;4985898;28;88486;-34
2021/12/08 04:08:43;;;;;;;10.40;7.53;;;4.70;99.90;;;;;;4986043;28;90943;-36
2021/12/08 04:11:11;;;;;;;9.65;8.30;;;4.70;99.90;;;;;;4971292;28;88654;-36
2021/12/08 04:13:44;;;;;;;11.38;8.38;;;4.80;99.90;;;;;;4970987;28;88643;-35
2021/12/08 04:16:11;;;;;;;7.40;6.30;;;4.80;99.90;;;;;;4970288;28;88102;-35
2021/12/08 04:18:37;;;;;;;17.35;9.55;;;4.90;99.90;;;;;;4969744;28;87864;-36
2021/12/08 04:21:04;;;;;;;9.20;8.30;;;4.80;99.90;;;;;;4984794;28;89669;-36
2021/12/08 04:23:35;;;;;;;10.25;8.30;;;4.80;99.90;;;;;;4970376;28;89436;-35
2021/12/08 04:26:05;;;;;;;12.48;8.30;;;4.80;99.90;;;;;;4970736;28;87868;-34
2021/12/08 04:28:32;;;;;;;8.98;8.13;;;4.90;99.90;;;;;;4970152;28;88624;-36
2021/12/08 04:31:12;;;;;;;11.68;8.45;;;4.90;99.90;;;;;;4985807;28;90235;-33
2021/12/08 04:33:38;;;;;;;13.43;9.63;;;4.90;99.90;;;;;;4969963;28;89255;-35
2021/12/08 04:36:10;;;;;;;11.38;8.73;;;4.80;99.90;;;;;;4970727;28;88402;-35
2021/12/08 04:38:41;;;;;;;8.88;8.07;;;4.80;99.90;;;;;;4969624;28;88030;-36
2021/12/08 04:41:13;;;;;;;9.32;8.43;;;4.80;99.90;;;;;;4984704;28;88520;-35
2021/12/08 04:43:57;;;;;;;12.02;9.57;;;4.80;99.90;;;;;;4970065;28;88597;-35
2021/12/08 04:51:54;;;;;;;11.05;9.43;;;4.80;99.90;;;;;;4969395;28;87385;-35
2021/12/08 05:08:14;;;;;;;10.38;9.30;;;5.00;99.90;;;;;;4970034;28;88321;-36
2021/12/08 05:10:41;;;;;;;11.35;10.18;;;5.10;99.90;;;;;;4969429;28;89398;-36
2021/12/08 05:13:11;;;;;;;9.47;8.67;;;5.00;99.90;;;;;;4969838;28;88164;-35
2021/12/08 05:15:54;;;;;;;12.10;9.32;;;5.10;99.90;;;;;;4969892;28;89319;-35
2021/12/08 05:18:31;;;;;;;12.60;9.23;;;5.00;99.90;;;;;;4969911;28;87711;-35
2021/12/08 05:21:01;;;;;;;15.10;8.75;;;5.10;99.90;;;;;;4969497;28;89216;-36
2021/12/08 05:23:43;;;;;;;10.15;9.18;;;5.00;99.90;;;;;;4969285;28;89157;-36
2021/12/08 05:26:28;;;;;;;10.27;9.10;;;5.00;99.90;;;;;;4969678;28;88710;-35
2021/12/08 05:28:56;;;;;;;13.98;10.65;;;5.00;99.90;;;;;;4970232;28;88028;-34
2021/12/08 05:31:27;;;;;;;10.25;8.77;;;5.00;99.90;;;;;;4986608;28;87826;-35
2021/12/08 05:33:53;;;;;;;11.30;9.13;;;5.00;99.90;;;;;;4972183;28;90147;-35
2021/12/08 05:36:20;;;;;;;9.98;8.80;;;5.00;99.90;;;;;;4972713;28;89151;-35
2021/12/08 05:38:45;;;;;;;12.90;9.52;;;5.10;99.90;;;;;;4972502;28;87942;-35
2021/12/08 05:41:20;;;;;;;10.05;9.15;;;5.10;99.90;;;;;;4973532;28;88852;-35
2021/12/08 05:43:47;;;;;;;9.30;8.20;;;5.10;99.90;;;;;;4972159;28;88710;-35
2021/12/08 05:46:15;;;;;;;11.93;8.77;;;5.10;99.90;;;;;;4988416;28;89679;-35
2021/12/08 05:48:42;;;;;;;12.23;9.52;;;5.20;99.90;;;;;;4973371;28;88867;-36
2021/12/08 05:51:16;;;;;;;14.32;9.57;;;5.20;99.90;;;;;;4989327;28;89235;-35
2021/12/08 05:53:45;;;;;;;9.82;8.68;;;5.10;99.90;;;;;;4971765;28;88337;-36
2021/12/08 05:56:10;;;;;;;9.93;9.07;;;5.10;99.90;;;;;;4988800;28;89056;-35
2021/12/08 05:58:38;;;;;;;11.70;9.55;;;5.00;99.90;;;;;;4972743;28;87891;-35
2021/12/08 06:01:26;;;;;;;8.68;7.88;;;5.00;99.90;;;;;;4972847;28;89010;-35
2021/12/08 06:03:53;;;;;;;11.13;8.65;;;5.00;99.90;;;;;;4969913;28;89758;-36
2021/12/08 06:06:21;;;;;;;10.70;8.73;;;5.00;99.90;;;;;;4988004;28;89533;-36
2021/12/08 06:08:48;;;;;;;12.90;8.65;;;5.00;99.90;;;;;;4972221;28;87189;-35
2021/12/08 06:11:14;;;;;;;10.15;8.55;;;5.00;99.90;;;;;;4988097;28;89234;-35
2021/12/08 06:13:42;;;;;;;11.30;9.18;;;4.90;99.90;;;;;;4987789;28;88723;-35
2021/12/08 06:16:10;;;;;;;10.90;9.83;;;4.90;99.90;;;;;;4972405;28;88174;-35
2021/12/08 06:18:39;;;;;;;9.02;8.10;;;4.90;99.90;;;;;;4988134;28;87920;-35
2021/12/08 06:21:25;;;;;;;10.20;9.07;;;4.90;99.90;;;;;;4972832;28;88801;-35
2021/12/08 06:23:51;;;;;;;12.90;9.77;;;4.80;99.90;;;;;;4972232;28;88939;-35
2021/12/08 06:26:20;;;;;;;9.43;8.40;;;4.90;99.90;;;;;;4971089;28;88466;-35
2021/12/08 06:28:46;;;;;;;8.80;7.53;;;4.80;99.90;;;;;;4971238;28;89367;-36
2021/12/08 06:31:14;;;;;;;11.35;7.50;;;4.80;99.90;;;;;;4972093;28;89262;-35
2021/12/08 06:33:40;;;;;;;9.57;8.20;;;4.70;99.90;;;;;;4971799;28;87323;-36
2021/12/08 06:36:10;;;;;;;12.63;8.27;;;4.70;99.90;;;;;;4971718;28;88193;-35
2021/12/08 06:38:36;;;;;;;12.38;8.18;;;4.70;99.90;;;;;;4987644;28;87142;-35
2021/12/08 06:41:13;;;;;;;9.68;8.65;;;4.80;99.90;;;;;;4987297;28;89404;-35
2021/12/08 06:43:49;;;;;;;11.73;7.68;;;4.90;99.90;;;;;;4970769;28;89132;-36
2021/12/08 06:46:15;;;;;;;11.27;7.82;;;4.80;99.90;;;;;;4971769;28;88767;-35
2021/12/08 06:48:48;;;;;;;16.45;8.35;;;5.00;99.90;;;;;;4972399;28;88993;-34
2021/12/08 06:51:22;;;;;;;10.07;7.78;;;5.00;99.90;;;;;;4987085;28;90471;-35
2021/12/08 06:53:52;;;;;;;9.43;7.25;;;5.00;99.90;;;;;;4971010;28;89614;-35
2021/12/08 06:56:25;;;;;;;7.70;6.90;;;5.00;99.90;;;;;;4987429;28;90117;-36
2021/12/08 06:58:58;;;;;;;9.38;8.40;;;5.10;99.90;;;;;;4970610;28;87928;-36
2021/12/08 07:01:41;;;;;;;8.35;6.75;;;5.10;99.90;;;;;;4987544;28;90109;-36
2021/12/08 07:07:00;;;;;;;6.78;5.90;;;5.10;99.90;;;;;;4971032;28;88436;-36
2021/12/08 07:09:53;;;;;;;12.90;7.60;;;5.20;99.90;;;;;;4971727;28;88495;-35
2021/12/08 07:12:18;;;;;;;9.00;6.65;;;5.20;99.90;;;;;;4971936;28;89763;-35
2021/12/08 07:14:50;;;;;;;9.48;6.00;;;5.20;99.90;;;;;;4971610;28;88835;-36
2021/12/08 07:17:21;;;;;;;10.23;6.68;;;5.30;99.90;;;;;;4971639;28;88113;-35
2021/12/08 07:20:02;;;;;;;11.70;7.18;;;5.30;99.90;;;;;;4985660;28;88596;-35
2021/12/08 07:22:31;;;;;;;9.18;6.72;;;5.20;99.90;;;;;;4985438;28;87862;-34
2021/12/08 07:24:59;;;;;;;7.30;6.10;;;5.20;99.90;;;;;;4991578;28;88596;-36
2021/12/08 07:27:31;;;;;;;8.50;6.35;;;5.20;99.90;;;;;;4990919;28;88615;-35
2021/12/08 07:30:00;;;;;;;11.70;6.40;;;5.30;99.90;;;;;;4991927;28;87626;-35
2021/12/08 07:32:36;;;;;;;8.40;6.18;;;5.40;99.90;;;;;;4991573;28;89690;-34
2021/12/08 07:35:09;;;;;;;10.35;5.43;;;5.40;99.90;;;;;;4990307;28;88564;-35
2021/12/08 07:37:35;;;;;;;6.38;4.75;;;5.30;99.90;;;;;;4991055;28;88395;-35
2021/12/08 07:40:15;;;;;;;6.40;5.45;;;5.30;99.90;;;;;;4990137;28;87420;-35
2021/12/08 07:42:53;;;;;;;5.85;5.13;;;5.20;99.90;;;;;;4989537;28;89122;-35
2021/12/08 07:45:24;;;;;;;7.55;5.20;;;5.30;99.90;;;;;;4989608;28;89526;-35
2021/12/08 07:47:52;;;;;;;7.80;4.82;;;5.30;99.90;;;;;;4989052;28;89645;-36
2021/12/08 07:50:20;;;;;;;12.90;4.40;;;5.40;99.90;;;;;;4991893;28;88175;-35
2021/12/08 07:52:48;;;;;;;6.03;4.47;;;5.40;99.90;;;;;;4990577;28;89006;-35
2021/12/08 07:55:25;;;;;;;9.43;3.15;;;5.50;99.90;;;;;;4989970;28;88667;-35
2021/12/08 07:57:51;;;;;;;9.55;4.47;;;5.50;99.90;;;;;;4990478;28;87958;-36
2021/12/08 08:00:25;;;;;;;4.18;2.88;;;5.50;99.90;;;;;;4990644;28;86548;-36
2021/12/08 08:02:52;;;;;;;7.68;4.18;;;5.50;99.90;;;;;;4990801;28;87742;-35
2021/12/08 08:05:22;;;;;;;8.10;3.63;;;5.50;99.90;;;;;;4990566;28;87489;-35
2021/12/08 08:07:48;;;;;;;5.45;3.88;;;5.60;99.90;;;;;;4990339;28;89198;-36
2021/12/08 08:10:15;;;;;;;3.92;2.88;;;5.50;99.90;;;;;;4989385;28;88845;-35
2021/12/08 08:12:47;;;;;;;7.38;2.67;;;5.60;99.90;;;;;;4990052;28;89758;-36
2021/12/08 08:15:22;;;;;;;5.72;4.07;;;5.60;99.90;;;;;;4989246;28;89021;-34
2021/12/08 08:17:52;;;;;;;6.28;3.45;;;5.60;99.90;;;;;;4990197;28;87771;-36
2021/12/08 08:20:28;;;;;;;5.55;3.28;;;5.70;99.90;;;;;;4989920;28;86633;-36
2021/12/08 08:22:55;;;;;;;6.80;3.22;;;5.60;99.90;;;;;;4989764;28;89409;-34
2021/12/08 08:25:27;;;;;;;7.40;3.65;;;5.60;99.90;;;;;;4989263;28;88732;-35
2021/12/08 08:27:53;;;;;;;5.97;3.20;;;5.60;99.90;;;;;;4989209;28;88336;-35
2021/12/08 08:30:23;;;;;;;4.97;3.50;;;5.50;99.90;;;;;;4989570;28;89295;-35
2021/12/08 08:32:52;;;;;;;12.55;4.35;;;5.60;99.90;;;;;;4988608;28;89157;-36
2021/12/08 08:35:20;;;;;;;8.30;3.47;;;5.60;99.90;;;;;;4970888;28;89873;-36
2021/12/08 08:37:49;;;;;;;9.20;3.23;;;5.70;99.90;;;;;;4988395;28;91070;-36
2021/12/08 08:40:22;;;;;;;9.13;3.63;;;5.70;99.90;;;;;;4995028;28;86989;-36
2021/12/08 08:42:51;;;;;;;11.27;3.58;;;5.70;99.90;;;;;;4991073;28;89234;-37
2021/12/08 08:45:33;;;;;;;6.93;2.90;;;5.80;99.90;;;;;;4992554;28;89029;-36
2021/12/08 08:48:06;;;;;;;8.50;3.22;;;5.90;99.90;;;;;;4991731;28;88548;-35
2021/12/08 08:51:04;;;;;;;7.32;3.03;;;5.90;99.90;;;;;;4990609;28;88869;-36
2021/12/08 08:53:34;;;;;;;6.80;3.40;;;5.90;99.90;;;;;;4986788;28;88901;-36
2021/12/08 08:56:10;;;;;;;8.63;3.28;;;5.80;99.90;;;;;;4988845;28;88411;-35
2021/12/08 08:58:37;;;;;;;7.30;4.10;;;5.90;99.90;;;;;;4987461;28;88529;-35
2021/12/08 09:01:13;;;;;;;6.72;2.72;;;5.90;99.90;;;;;;4988889;28;88359;-34
2021/12/08 09:03:41;;;;;;;8.13;3.28;;;5.90;99.90;;;;;;4991768;28;90874;-35
2021/12/08 09:06:14;;;;;;;8.15;3.35;;;5.90;99.90;;;;;;4990703;28;88704;-35
2021/12/08 09:08:41;;;;;;;8.10;3.60;;;5.90;99.90;;;;;;4991917;28;88631;-36
2021/12/08 09:11:28;;;;;;;8.50;4.25;;;6.00;99.90;;;;;;4990332;28;87827;-37
2021/12/08 09:14:00;;;;;;;8.07;3.63;;;6.10;99.90;;;;;;4991958;28;92016;-35
2021/12/08 09:16:32;;;;;;;9.75;3.45;;;6.30;99.90;;;;;;4992234;28;88665;-36
2021/12/08 09:19:06;;;;;;;6.55;3.95;;;6.60;99.90;;;;;;4993631;28;89694;-35
2021/12/08 09:21:55;;;;;;;12.07;3.85;;;6.70;99.90;;;;;;4991620;28;87480;-37
2021/12/08 09:24:38;;;;;;;11.50;3.70;;;6.90;99.90;;;;;;4993961;28;89367;-35
2021/12/08 09:27:07;;;;;;;8.75;3.63;;;7.00;99.90;;;;;;4990272;28;89950;-36
2021/12/08 09:29:45;;;;;;;9.27;3.88;;;7.00;99.90;;;;;;4974715;28;89563;-36
2021/12/08 09:32:31;;;;;;;11.93;3.95;;;7.00;99.90;;;;;;4989176;28;86758;-36
2021/12/08 09:35:00;;;;;;;11.30;3.35;;;6.90;99.90;;;;;;4991063;28;88318;-36
2021/12/08 09:37:36;;;;;;;;;;;6.80;99.90;;;;;;4991020;28;89169;-35
2021/12/08 09:40:18;;;;;;;13.32;4.57;;;6.70;99.90;;;;;;4992306;28;88358;-34
2021/12/08 09:42:49;;;;;;;7.57;3.72;;;6.60;99.90;;;;;;4992836;28;87650;-34
2021/12/08 09:45:28;;;;;;;13.30;4.20;;;6.60;99.90;;;;;;4991932;28;89078;-35
2021/12/08 09:47:54;;;;;;;7.55;3.83;;;6.50;99.90;;;;;;4994568;28;89176;-36
2021/12/08 09:50:19;;;;;;;11.73;4.07;;;6.50;99.90;;;;;;4994148;28;87083;-34
2021/12/08 09:52:47;;;;;;;11.30;4.57;;;6.40;99.90;;;;;;4992579;28;89001;-36
2021/12/08 09:55:16;;;;;;;12.40;4.43;;;6.40;99.90;;;;;;4992202;28;89201;-35
2021/12/08 10:00:30;;;;;;;5.63;3.58;;;6.40;99.90;;;;;;4949392;22;115300;-80
2021/12/08 10:02:59;;;;;;;10.45;3.72;;;6.50;99.90;;;;;;4946999;28;88072;-81
2021/12/08 10:06:27;;;;;;;10.43;4.05;;;6.50;99.90;;;;;;4970716;27;88480;-38
2021/12/08 10:08:57;;;;;;;7.43;4.00;;;6.50;99.90;;;;;;5017874;27;88479;-35
2021/12/08 10:11:25;;;;;;;9.30;4.35;;;6.50;99.90;;;;;;5016703;28;88668;-35
2021/12/08 10:13:51;;;;;;;9.57;4.20;;;6.50;99.90;;;;;;5018147;28;90668;-32
2021/12/08 10:16:17;;;;;;;8.60;4.28;;;6.50;99.90;;;;;;5017888;28;89903;-37
2021/12/08 10:18:43;;;;;;;8.55;4.57;;;6.60;99.90;;;;;;5016947;28;88672;-33
2021/12/08 10:21:10;;;;;;;8.30;4.65;;;6.50;99.90;;;;;;5016218;28;88986;-34
2021/12/08 10:23:39;;;;;;;6.68;4.03;;;6.50;99.90;;;;;;5016253;28;90275;-39
2021/12/08 10:26:06;;;;;;;;;;;6.60;99.90;;;;;;5016815;28;89669;-34
2021/12/08 10:28:50;;;;;;;10.68;5.05;;;6.60;99.90;;;;;;5052369;27;88787;-36
2021/12/08 10:31:28;;;;;;;9.93;4.03;;;6.70;99.90;;;;;;5016935;28;89836;-35
2021/12/08 10:36:51;;;;;;;5.60;3.33;;;6.90;99.90;;;;;;5016897;28;91107;-37
2021/12/08 10:39:19;;;;;;;15.65;5.35;;;7.00;99.90;;;;;;5019212;27;89514;-37
2021/12/08 10:41:52;;;;;;;8.02;4.18;;;7.00;99.90;;;;;;5015569;28;88898;-38
2021/12/08 10:44:23;;;;;;;6.95;3.90;;;7.00;99.90;;;;;;5002213;28;89952;-39
2021/12/08 10:46:55;;;;;;;10.30;4.70;;;7.10;99.90;;;;;;5016703;28;89388;-40
2021/12/08 10:54:25;;;;;;;13.27;5.28;;;7.10;99.90;;;;;;5020775;28;88714;-36
2021/12/08 10:54:53;;;;;;;5.90;4.45;;;7.10;99.90;;;;;;5018903;28;90567;-35
2021/12/08 10:57:30;;;;;;;10.68;4.85;;;7.10;99.90;;;;;;5017257;27;89423;-36
2021/12/08 10:59:59;;;;;;;10.82;4.88;;;7.00;99.90;;;;;;5014877;28;87917;-33
2021/12/08 11:03:11;;;;;;;10.23;3.90;;;7.00;99.90;;;;;;5022111;28;88804;-41
2021/12/08 11:05:51;;;;;;;7.28;3.58;;;7.10;99.90;;;;;;5014250;27;91207;-37
2021/12/08 11:08:23;;;;;;;5.60;3.55;;;7.20;99.90;;;;;;5020490;27;89488;-35
2021/12/08 11:10:57;;;;;;;10.25;4.05;;;7.20;99.90;;;;;;5016943;28;89692;-40
2021/12/08 11:13:26;;;;;;;9.90;4.38;;;7.00;99.90;;;;;;5015134;28;87591;-38
2021/12/08 11:16:04;;;;;;;8.07;5.00;;;7.00;99.90;;;;;;5015735;28;90019;-38
2021/12/08 11:18:31;;;;;;;8.53;3.70;;;7.20;99.90;;;;;;5002537;28;89476;-36
2021/12/08 11:21:05;;;;;;;7.43;3.45;;;7.20;99.90;;;;;;5004110;28;89322;-39
2021/12/08 11:23:41;;;;;;;8.05;4.00;;;7.40;99.90;;;;;;5002694;28;88618;-37
2021/12/08 11:26:26;;;;;;;11.07;3.83;;;7.40;99.90;;;;;;5003482;28;90013;-36
2021/12/08 11:28:52;;;;;;;6.40;3.63;;;7.30;99.90;;;;;;5002909;28;90341;-35
2021/12/08 11:31:19;;;;;;;14.25;5.03;;;7.30;99.90;;;;;;5004908;28;88601;-34
2021/12/08 11:33:54;;;;;;;6.85;4.25;;;7.40;99.90;;;;;;5004212;28;89110;-40
2021/12/08 11:36:25;;;;;;;6.95;3.75;;;7.40;99.90;;;;;;5002539;28;90660;-34
2021/12/08 11:38:51;;;;;;;8.20;4.25;;;7.40;99.90;;;;;;5005629;28;88386;-38
2021/12/08 11:41:35;;;;;;;10.07;4.05;;;7.40;99.90;;;;;;5003763;28;88705;-40
2021/12/08 11:44:05;;;;;;;13.27;4.15;;;7.30;99.90;;;;;;5007231;28;87886;-34
2021/12/08 11:46:37;;;;;;;12.13;4.43;;;7.20;99.90;;;;;;5005293;28;90702;-40
2021/12/08 11:49:05;;;;;;;9.50;4.32;;;7.20;99.90;;;;;;4984131;28;91691;-38
2021/12/08 11:51:35;;;;;;;7.43;4.75;;;7.00;99.90;;;;;;5004819;28;89096;-39
2021/12/08 11:54:01;;;;;;;7.20;4.18;;;7.00;99.90;;;;;;5002773;28;88643;-34
2021/12/08 11:56:45;;;;;;;10.82;3.63;;;7.00;99.90;;;;;;5002773;28;90283;-33
2021/12/08 11:59:10;;;;;;;8.50;4.35;;;6.90;99.90;;;;;;5001282;28;89574;-39
2021/12/08 12:01:37;;;;;;;7.22;3.53;;;7.00;99.90;;;;;;5002632;28;88177;-36
2021/12/08 12:04:05;;;;;;;7.95;3.63;;;6.90;99.90;;;;;;5001080;28;89918;-35
2021/12/08 12:06:33;;;;;;;5.37;3.93;;;7.10;99.90;;;;;;5001829;28;90140;-35
2021/12/08 12:08:59;;;;;;;12.07;4.25;;;6.90;99.90;;;;;;5002367;28;89967;-36
2021/12/08 12:11:29;;;;;;;11.02;4.38;;;6.90;99.90;;;;;;5001352;28;88111;-37
2021/12/08 12:13:57;;;;;;;6.25;4.50;;;6.90;99.90;;;;;;4985271;28;88321;-34
2021/12/08 12:16:24;;;;;;;9.97;4.80;;;6.90;99.90;;;;;;5001883;28;90406;-35
2021/12/08 12:18:53;;;;;;;8.98;3.75;;;6.90;99.90;;;;;;5001655;28;89908;-33
2021/12/08 12:21:41;;;;;;;7.07;4.63;;;6.90;99.90;;;;;;4988613;28;88364;-33
2021/12/08 12:24:40;;;;;;;10.50;4.70;;;6.90;99.90;;;;;;5005596;28;87485;-33
2021/12/08 12:27:42;;;;;;;5.25;3.80;;;6.90;99.90;;;;;;5002286;28;90286;-37
2021/12/08 12:30:11;;;;;;;11.38;4.82;;;6.90;99.90;;;;;;5000918;28;89546;-40
2021/12/08 12:32:42;;;;;;;11.75;3.22;;;6.90;99.90;;;;;;5002123;28;88910;-37
2021/12/08 12:35:20;;;;;;;10.88;4.97;;;6.90;99.90;;;;;;5001213;28;90183;-35
2021/12/08 12:37:48;;;;;;;12.15;4.45;;;6.90;99.90;;;;;;5002120;28;90713;-41
2021/12/08 12:40:19;;;;;;;6.83;4.70;;;6.80;99.90;;;;;;5002099;28;89595;-37
2021/12/08 12:42:56;;;;;;;6.03;3.13;;;6.80;99.90;;;;;;5002613;28;89242;-34
2021/12/08 12:45:24;;;;;;;6.68;3.88;;;6.90;99.90;;;;;;5003224;28;89495;-37
2021/12/08 12:48:23;;;;;;;5.10;3.37;;;6.80;99.90;;;;;;5002102;28;90553;-35
2021/12/08 12:51:07;;;;;;;7.95;3.35;;;6.80;99.90;;;;;;5003418;28;89502;-32
2021/12/08 12:53:36;;;;;;;5.13;3.45;;;6.80;99.90;;;;;;5003574;28;87814;-37
2021/12/08 12:56:02;;;;;;;5.80;3.67;;;6.80;99.90;;;;;;5003232;27;87647;-37
2021/12/08 12:58:50;;;;;;;7.85;4.55;;;6.80;99.90;;;;;;5001902;28;89367;-33
2021/12/08 13:01:26;;;;;;;6.87;3.80;;;6.80;99.90;;;;;;5002481;28;89412;-35
2021/12/08 13:03:56;;;;;;;6.05;2.90;;;6.80;99.90;;;;;;5000315;28;89725;-35
2021/12/08 13:06:48;;;;;;;7.65;3.85;;;6.90;99.90;;;;;;5000459;28;87943;-37
2021/12/08 13:09:33;;;;;;;9.18;3.97;;;6.80;99.90;;;;;;4993753;28;90330;-38
2021/12/08 13:12:19;;;;;;;8.70;3.28;;;6.80;99.90;;;;;;5004959;28;88434;-37
2021/12/08 13:15:07;;;;;;;6.15;3.38;;;6.80;99.90;;;;;;5000209;28;88497;-32
2021/12/08 13:17:33;;;;;;;10.75;4.00;;;6.80;99.90;;;;;;4987648;28;91047;-36
2021/12/08 13:22:52;;;;;;;7.35;3.92;;;6.80;99.90;;;;;;4999500;28;88496;-33
2021/12/08 13:25:28;;;;;;;6.72;3.78;;;6.70;99.90;;;;;;5000954;28;88780;-36
2021/12/08 13:31:26;;;;;;;7.07;4.93;;;6.80;99.90;;;;;;4999952;28;90566;-37
2021/12/08 13:33:58;;;;;;;5.72;3.38;;;6.80;99.90;;;;;;5000155;28;89528;-33
2021/12/08 13:36:28;;;;;;;7.22;3.28;;;6.80;99.90;;;;;;4998483;28;89980;-39
2021/12/08 13:38:54;;;;;;;11.15;3.45;;;6.80;99.90;;;;;;4999436;28;90209;-32
2021/12/08 13:41:21;;;;;;;5.03;3.13;;;6.90;99.90;;;;;;5000526;28;90345;-34
2021/12/08 13:43:51;;;;;;;6.07;3.30;;;6.90;99.90;;;;;;5000520;28;90243;-32
2021/12/08 13:46:36;;;;;;;9.18;3.53;;;6.80;99.90;;;;;;4999113;28;87824;-33
2021/12/08 13:49:34;;;;;;;7.43;3.80;;;6.80;99.90;;;;;;5000445;28;87762;-36
2021/12/08 13:52:05;;;;;;;;;;;6.70;99.90;;;;;;4994612;28;89349;-34
2021/12/08 13:54:33;;;;;;;4.25;3.28;;;6.90;99.90;;;;;;5000323;28;89900;-36
2021/12/08 13:57:01;;;;;;;7.30;4.05;;;6.80;99.90;;;;;;4999982;28;88772;-34
2021/12/08 13:59:53;;;;;;;4.88;3.90;;;6.70;99.90;;;;;;4998978;28;89346;-38
2021/12/08 14:02:24;;;;;;;12.65;3.47;;;6.70;99.90;;;;;;4998262;28;89865;-32
2021/12/08 14:05:03;;;;;;;3.72;2.92;;;6.70;99.90;;;;;;4998691;28;89745;-33
2021/12/08 14:07:29;;;;;;;5.72;3.30;;;6.80;99.90;;;;;;4999455;28;89494;-34
2021/12/08 14:10:00;;;;;;;6.13;2.58;;;6.70;99.90;;;;;;4997921;28;88260;-36
2021/12/08 14:12:51;;;;;;;5.20;2.88;;;6.70;99.90;;;;;;5000126;28;88813;-36
2021/12/08 14:15:21;;;;;;;10.27;3.42;;;6.80;99.90;;;;;;4999918;28;88488;-32
2021/12/08 14:17:49;;;;;;;7.35;3.38;;;6.70;99.90;;;;;;4999608;28;89739;-34
2021/12/08 14:20:30;;;;;;;9.85;3.88;;;6.70;99.90;;;;;;4999989;28;87614;-33